Tiempo atmosférico en la estación meteorológica de Asturias Aeropuerto, Asturias (127 m.)



Fecha
DESCASC
Temp. máxima en grados centígrados (hora)
DESCASC
Temp. mínima en grados centígrados (hora)
DESCASC
Temp. media en grados centígrados
DESCASC
Racha de viento máxima en m/sg (hora)
DESCASC
Velocidad máxima media en intervalos de 10 minutos(hora)
DESCASC
Precipitaciones diarias en mm
DESCASC
Precipitaciones de 00:00 a 06:00 en mm
DESCASC
Precipitaciones de 06:00 a 12:00 en mm
DESCASC
Precipitaciones de 12:00 a 18:00 en mm
DESCASC
Precipitaciones de 18:00 a 24:00 en mm
DESCASC
21-02-2019 19.3 (14:20) 6.5 (06:10) 12.9 8.89 (04:10) 6.39 (08:10) 0 0 0 0 0
20-02-2019 13.7 (13:10) 4.4 (07:40) 9 8.89 (09:20) 5.56 (06:40) 0 0 0 0 0
19-02-2019 11.8 (13:00) 3.5 (08:30) 7.7 10.28 (10:10) 4.72 (09:50) 0 0 0 0 0
18-02-2019 10.5 (01:50) 6.6 (23:59) 8.5 9.72 (15:00) 6.39 (15:00) 22.7 2.3 4.8 11.6 4
17-02-2019 16.6 (13:50) 7.9 (00:00) 12.3 10.83 (09:10) 5.83 (06:40) 0 0 0 0 0
16-02-2019 20.1 (17:20) 7 (00:00) 13.6 8.89 (04:20) 6.39 (04:40) 0 0 0 0 0
15-02-2019 18.7 (14:00) 9.4 (00:00) 14.1 10.28 (08:00) 6.39 (08:00) 0 0 0 0 0
14-02-2019 17.6 (16:50) 6 (00:00) 11.8 10.28 (09:10) 6.11 (09:00) 0 0 0 0 0
13-02-2019 15.5 (16:00) 3.4 (00:00) 9.5 8.33 (07:40) 5.28 (07:50) 0 0 0 0 0
12-02-2019 13.9 (14:20) 3.2 (00:00) 8.5 7.78 (12:10) 5.83 (12:30) -- 0 -- -- 0
11-02-2019 12.8 (13:30) 4.4 (00:00) 8.6 8.33 (09:40) 4.17 (08:00) 0 0 0 0 0
10-02-2019 16.3 (06:00) 6.7 (00:00) 11.5 29.17 (05:50) 15.56 (06:20) 8.7 0.1 7.8 0.7 0.1
09-02-2019 17.4 (13:00) 9.2 (00:00) 13.3 16.11 (23:00) 9.17 (23:00) 0 0 0 0 0
08-02-2019 16.8 (14:50) 3.4 (00:00) 10.1 16.11 (17:30) 8.89 (17:30) 0 0 0 0 0
07-02-2019 13 (15:00) 5.8 (00:00) 9.4 12.78 (03:00) 8.61 (03:00) 1.2 0 1.2 0 0
06-02-2019 13.1 (13:30) 6.4 (00:00) 9.8 7.78 (06:50) 5.28 (06:50) 0 0 0 0 0
05-02-2019 15.9 (14:00) 8 (00:00) 11.9 7.22 (02:30) 4.72 (05:10) 0 0 0 0 0
04-02-2019 13.9 (15:40) 3.4 (00:00) 8.6 8.89 (06:40) 6.39 (07:30) 0 0 0 0 0
03-02-2019 11.3 (15:30) 2.6 (00:00) 7 7.78 (06:50) 5 (07:30) 0 0 0 0 0
02-02-2019 -- (--) -- (--) -- -- (--) -- (--) -- 3.8 -- -- 0.6
01-02-2019 10.2 (00:50) 4.4 (00:00) 7.3 22.78 (06:40) 14.44 (06:40) 9.8 0.4 2.3 3.9 3.2
31-01-2019 15.2 (12:30) 8.7 (00:00) 11.9 18.06 (17:30) 11.11 (17:30) 24 9.3 2.9 11.8 0
30-01-2019 12.3 (13:10) 5.9 (00:00) 9.1 15 (02:20) 9.17 (02:20) 9.5 0.4 0 1.6 7.5
29-01-2019 12.7 (12:00) 6.4 (00:00) 9.5 25.83 (12:40) 16.94 (12:50) 7.7 0 0.3 6.1 1.3
28-01-2019 11.3 (12:50) 7.9 (00:00) 9.6 18.61 (04:10) 11.94 (08:40) 4.7 0.6 3.2 0.9 0
27-01-2019 11 (13:20) 7.5 (00:00) 9.3 24.17 (03:50) 15.83 (03:00) 8.8 2.6 5.3 0.3 0.6
26-01-2019 12.2 (13:40) 6 (00:00) 9.1 8.89 (12:10) 5.56 (15:30) 0 0 0 0 0
25-01-2019 12.4 (13:30) 8.7 (00:00) 10.5 6.67 (07:40) 3.89 (02:00) 7.7 6.7 1 0 0
24-01-2019 -- (--) -- (--) -- -- (--) -- (--) -- 2.7 -- -- 1.4

Gráficas

Temp. máximas Temp. mínimas Temp. medias Precipitaciones Rachas de viento máximas Velocidades máximas media en intervalos de 10 minutos

Datos horarios

Fecha y hora oficial Temperatura (ºC) Velocidad del viento (km/h) Dirección del viento Racha (km/h) Dirección de racha Precipitación (mm) Presión (hPa) Tendencia (hPa) Humedad (%)
2019-02-22 23:00:00 13.3 18 Sudoeste 28 Sur 0 1012 0.6 59
2019-02-22 22:00:00 13.4 14 Sur 22 Sur 0 1012 0.7 63
2019-02-22 21:00:00 12.5 13 Sur 18 Sudoeste 0 1011.7 0.5 67
2019-02-22 20:00:00 11.9 8 Sudeste 9 Sudeste 0 1011.4 -0.1 71
2019-02-22 19:00:00 13.7 8 Sudeste 17 Este 0 1011.3 -0.3 61
2019-02-22 18:00:00 16.6 11 Este 15 Sudeste 0 1011.2 -0.7 54
2019-02-22 17:00:00 16.9 8 Este 11 Este 0 1011.5 -0.7 47
2019-02-22 16:00:00 16.8 3 Nordeste 11 Nordeste 0 1011.6 -1.1 52
2019-02-22 15:00:00 17.5 6 Norte 11 Noroeste 0 1011.9 -0.9 41
2019-02-22 14:00:00 17.3 8 Noroeste 13 Noroeste 0 1012.2 -0.7 41
2019-02-22 13:00:00 17.2 9 Noroeste 13 Noroeste 0 1012.7 -0.5 43
2019-02-22 12:00:00 17.2 8 Sudoeste 21 Sudoeste 0 1012.8 0.1 45
2019-02-22 11:00:00 13.9 14 Sudoeste 26 Sur 0 1012.9 0.4 49
2019-02-22 10:00:00 11.3 19 Sur 37 Sur 0 1013.2 0.9 56
2019-02-22 09:00:00 10.4 18 Sur 28 Sur 0 1012.7 0.3 58
2019-02-22 08:00:00 9.8 21 Sur 30 Sudoeste 0 1012.5 0.2 61
2019-02-22 07:00:00 9.7 21 Sur 28 Sur 0 1012.3 0 63
2019-02-22 06:00:00 10.2 18 Sudoeste 26 Sur 0 1012.4 -0.1 62
2019-02-22 05:00:00 10.5 13 Sudoeste 30 Sur 0 1012.3 -0.2 62
2019-02-22 04:00:00 11.7 20 Sur 33 Sur 0 1012.3 0.1 57
2019-02-22 03:00:00 11.3 20 Sudoeste 30 Sudoeste 0 1012.5 0.7 60
2019-02-22 02:00:00 12.4 19 Sur 30 Sudoeste 0 1012.5 0.6 56
2019-02-22 01:00:00 13.3 19 Sur 30 Sur 0 1012.2 0.7 53
2019-02-22 00:00:00 12.6 19 Sur 28 Sur 0 1011.8 1.1 58
2019-02-21 23:00:00 12.9 18 Sur 26 Sur 0 1011.9 1.4 58
2019-02-21 22:00:00 13.8 18 Sudoeste 26 Sur 0 1011.5 1.8 54
2019-02-21 21:00:00 12.6 12 Sur 18 Sudeste 0 1010.7 1.6 58
2019-02-21 20:00:00 12.2 17 Sudeste 24 Sudeste 0 1010.5 1.4 61
2019-02-21 19:00:00 14.5 22 Sudeste 28 Sudeste 0 1009.7 0.7 50
2019-02-21 18:00:00 15.4 20 Sudeste 28 Este 0 1009.1 0.3 52
2019-02-21 17:00:00 17.3 22 Este 30 Este 0 1009.1 0.2 39
2019-02-21 16:00:00 18.8 13 Este 21 Sudeste 0 1009 -0.3 42
2019-02-21 15:00:00 17.9 10 Este 17 Este 0 1008.8 -0.8 51
2019-02-21 14:00:00 18.8 7 Nordeste 15 Nordeste 0 1008.9 -0.7 46
2019-02-21 13:00:00 17.7 5 Este 17 Sur 0 1009.3 -0.2 53
2019-02-21 12:00:00 15.3 13 Sur 26 Sur 0 1009.6 0.6 48
2019-02-21 11:00:00 11.9 16 Sur 28 Sur 0 1009.6 1.1 57
2019-02-21 10:00:00 9.7 17 Sudoeste 32 Sudoeste 0 1009.5 1.3 62
2019-02-21 09:00:00 7.9 20 Sudoeste 32 Sudoeste 0 1009 1.2 69
2019-02-21 08:00:00 7.3 23 Sur 32 Sur 0 1008.5 0.7 73
2019-02-21 07:00:00 7.2 19 Sur 28 Sur 0 1008.2 0.1 74
2019-02-21 06:00:00 7 19 Sudoeste 26 Sur 0 1007.8 -0.3 80
2019-02-21 05:00:00 7.3 18 Sudoeste 32 Sudoeste 0 1007.8 -0.2 77
2019-02-21 04:00:00 8.3 21 Sudoeste 30 Sur 0 1008.1 0.1 74
2019-02-21 03:00:00 7.8 18 Sudoeste 30 Sudoeste 0 1008.1 0.1 81
2019-02-21 02:00:00 8.1 18 Sudoeste 30 Sudoeste 0 1008 0 83
2019-02-21 01:00:00 8.2 14 Sur 24 Sudoeste 0 1008 0.3 86
2019-02-21 00:00:00 8.1 14 Sur 21 Sur 0 1008 0.6 89
2019-02-20 23:00:00 8.3 11 Sudoeste 15 Sudoeste 0 1008 0.9 91
2019-02-20 22:00:00 7.7 5 Sudoeste 11 Sur 0 1007.7 1.1 93
2019-02-20 21:00:00 8.3 4 Sudeste 15 Sudeste 0 1007.4 1.1 91
2019-02-20 20:00:00 8.7 13 Sudeste 15 Sudeste 0 1007.1 0.9 90
2019-02-20 19:00:00 11 9 Este 15 Este 0 1006.6 0.4 78
2019-02-20 18:00:00 12.3 9 Este 13 Este 0 1006.3 -0.1 73
2019-02-20 17:00:00 11.8 8 Este 15 Este 0 1006.2 -0.3 80
2019-02-20 16:00:00 11.8 5 Este 13 Este 0 1006.2 -0.4 77
2019-02-20 15:00:00 12.3 8 Norte 17 Nordeste 0 1006.4 -0.2 76
2019-02-20 14:00:00 12.5 9 Norte 15 Norte 0 1006.5 0.1 73
2019-02-20 13:00:00 13.4 6 Este 15 Este 0 1006.6 0.5 66
2019-02-20 12:00:00 11.8 9 Sudeste 17 Sur 0 1006.6 1 65
2019-02-20 11:00:00 8.4 13 Sudoeste 26 Sur 0 1006.4 1.4 70
2019-02-20 10:00:00 6.1 20 Sudoeste 32 Sudoeste 0 1006.1 1.5 78
2019-02-20 09:00:00 4.5 16 Sudoeste 30 Sur 0 1005.6 1.2 86
2019-02-20 08:00:00 4.7 19 Sur 28 Sudoeste 0 1005 0.9 87
2019-02-20 07:00:00 4.9 18 Sudoeste 30 Sudoeste 0 1004.6 0.1 88
2019-02-20 06:00:00 5.6 17 Sudoeste 30 Sudoeste 0 1004.4 -0.4 88
2019-02-20 05:00:00 5.2 15 Sudoeste 28 Sudoeste 0 1004.1 -1 89
2019-02-20 04:00:00 5.5 17 Sudoeste 28 Sudoeste 0 1004.5 -0.4 90
2019-02-20 03:00:00 5.6 17 Sudoeste 26 Sur 0 1004.8 0 91
2019-02-20 02:00:00 6.1 17 Sudoeste 26 Sudoeste 0 1005.1 0.2 91
2019-02-20 01:00:00 5.6 13 Sudoeste 21 Sur 0 1004.9 0 94
2019-02-20 00:00:00 6.5 12 Sudoeste 18 Sudoeste 0 1004.8 0.1 92
2019-02-19 23:00:00 6.3 12 Sudoeste 18 Sudoeste 0 1004.9 0.4 93
2019-02-19 22:00:00 5.3 8 Sur 18 Sur 0 1004.9 0.8 95
2019-02-19 21:00:00 6.1 10 Sudeste -- -- 0 1004.7 0.8 94
2019-02-19 20:00:00 7.8 13 Sudeste 17 Este 0 1004.5 0.2 88
2019-02-19 19:00:00 9.3 12 Este 17 Sudeste 0 1004.1 -0.5 84
2019-02-19 18:00:00 10.8 10 Este 17 Este 0 1003.9 -1 74
2019-02-19 17:00:00 11.4 9 Este 21 Este 0 1004.3 -1 71
2019-02-19 16:00:00 11.6 11 Este 22 Nordeste 0 1004.6 -1.5 72
2019-02-19 15:00:00 11.7 9 Este 22 Este 0 1004.9 -1.4 73
2019-02-19 14:00:00 11.1 9 Este 17 Este 0 1005.3 -1.5 71
2019-02-19 13:00:00 11.6 7 Este 17 Nordeste 0 1006.1 -1 69
2019-02-19 12:00:00 10.6 9 Este 21 Sudeste 0 1006.3 -0.7 76
2019-02-19 11:00:00 7.4 12 Sudoeste 37 Sudoeste 0 1006.8 0.2 86
2019-02-19 10:00:00 4.8 17 Sudoeste 32 Sudoeste 0 1007.1 0.6 94
2019-02-19 09:00:00 3.8 16 Sudoeste 24 Sudoeste 0 1007 0.6 96
2019-02-19 08:00:00 3.7 15 Sur 22 Sudoeste 0 1006.6 0.2 95
2019-02-19 07:00:00 4.1 14 Sudoeste 21 Sudoeste 0 1006.5 -0.3 95
2019-02-19 06:00:00 4.4 12 Sudoeste 21 Sudoeste 0 1006.4 -0.5 95
2019-02-19 05:00:00 4.9 14 Sudoeste 22 Sudoeste 0 1006.4 -0.8 94
2019-02-19 04:00:00 5.5 12 Sudoeste 21 Sudoeste 0 1006.8 -0.5 93
2019-02-19 03:00:00 5.7 12 Sudoeste 21 Sudoeste 0 1006.9 -0.4 93
2019-02-19 02:00:00 6.4 14 Sudoeste 22 Sudoeste 0 1007.2 -0.1 92
2019-02-19 01:00:00 6.5 13 Sudoeste 22 Sudoeste 0 1007.3 0.1 90
2019-02-19 00:00:00 6.7 14 Sudoeste 22 Sur 0 1007.3 0.7 90
2019-02-18 23:00:00 7.2 13 Sudoeste 24 Sur 0 1007.3 0.8 89
2019-02-18 22:00:00 7.2 12 Sudoeste 21 Sudoeste 0 1007.2 1.3 93
2019-02-18 21:00:00 7.3 12 Sudoeste 18 Sur 0.6 1006.6 1.1 94
2019-02-18 20:00:00 7.5 9 Sur 17 Sur 2 1006.5 1 92
2019-02-18 19:00:00 7.6 12 Sur 17 Sur 1.4 1005.9 1 92
2019-02-18 18:00:00 7.7 6 Sudoeste 17 Sudoeste 1.4 1005.5 0.9 93
2019-02-18 17:00:00 8.2 10 Oeste 30 Oeste 1.2 1005.5 1.1 94
2019-02-18 16:00:00 8.4 22 Oeste 33 Oeste 1.2 1004.9 0.4 96
2019-02-18 15:00:00 8.8 23 Oeste 35 Oeste 3.6 1004.6 0.4 97
2019-02-18 14:00:00 8.9 13 Noroeste 33 Oeste 1.5 1004.4 0.4 97
2019-02-18 13:00:00 9 14 Oeste 21 Oeste 2.7 1004.5 0.7 96
2019-02-18 12:00:00 9.1 6 Oeste 13 Noroeste 2.7 1004.2 0.7 96
2019-02-18 11:00:00 9.3 0 Calma 5 Nordeste 1.1 1004 1.2 96
2019-02-18 10:00:00 9.3 3 Norte 8 Norte 0.6 1003.8 1 96
2019-02-18 09:00:00 9.1 4 Norte 11 Noroeste 0.4 1003.5 0.9 96
2019-02-18 08:00:00 8.9 4 Noroeste 9 Noroeste 0 1002.8 0.4 96
2019-02-18 07:00:00 9 0 Calma 11 Noroeste 0 1002.8 0 95
2019-02-18 06:00:00 8.9 6 Oeste 13 Oeste 0 1002.6 -0.3 96
2019-02-18 05:00:00 8.8 11 Noroeste 17 Oeste 0 1002.4 -0.4 98
2019-02-18 04:00:00 8.9 12 Noroeste 28 Noroeste 0.8 1002.8 0 98
2019-02-18 03:00:00 9.2 18 Oeste 26 Oeste 1.5 1002.9 0 97
2019-02-18 02:00:00 10.3 10 Oeste 22 Oeste 0 1002.8 -0.2 94
2019-02-18 01:00:00 10.4 8 Noroeste 15 Oeste 0 1002.8 -0.4 94
2019-02-18 00:00:00 10.2 8 Oeste 13 Oeste 0 1002.9 -0.2 94
2019-02-17 23:00:00 9.7 7 Oeste 13 Oeste 0 1003 -0.1 93
2019-02-17 22:00:00 9.9 8 Oeste 11 Oeste 0 1003.2 0.4 91
2019-02-17 21:00:00 10.4 6 Noroeste 9 Noroeste 0 1003.1 0.9 92
2019-02-17 20:00:00 10.8 4 Noroeste 9 Noroeste 0 1003.1 0.8 92
2019-02-17 19:00:00 11.4 0 Calma 5 Nordeste 0 1002.8 0.5 89
2019-02-17 18:00:00 12.3 3 Norte 11 Noroeste 0 1002.2 -0.2 83
2019-02-17 17:00:00 13.5 5 Norte 15 Norte 0 1002.3 -0.7 77
2019-02-17 16:00:00 15.1 6 Norte 13 Norte 0 1002.3 -1.3 57
2019-02-17 15:00:00 15.9 6 Norte 13 Nordeste 0 1002.4 -1.3 55
2019-02-17 14:00:00 16.3 5 Norte 11 Norte 0 1003 -0.5 47
2019-02-17 13:00:00 15.9 5 Norte 11 Norte 0 1003.6 0.2 47
2019-02-17 12:00:00 15.4 4 Sudeste 17 Sudoeste 0 1003.7 0.5 51
2019-02-17 11:00:00 12.9 12 Sudoeste 21 Sudoeste 0 1003.5 0.8 50
2019-02-17 10:00:00 12 12 Sudoeste 39 Sur 0 1003.4 0.6 53
2019-02-17 09:00:00 9.6 12 Sudoeste 24 Sur 0 1003.2 0.3 59
2019-02-17 08:00:00 10.5 20 Sur 30 Sur 0 1002.7 -0.4 53
2019-02-17 07:00:00 9.9 18 Sur 32 Sur 0 1002.8 -0.5 56
2019-02-17 06:00:00 9.3 15 Sudoeste 28 Sur 0 1002.9 -0.5 60
2019-02-17 05:00:00 9.1 15 Sudoeste 26 Sudoeste 0 1003.1 -0.6 62
2019-02-17 04:00:00 8.9 14 Sudoeste 21 Sudoeste 0 1003.3 -1 64
2019-02-17 03:00:00 9.7 15 Sur 21 Sur 0 1003.4 -1.1 63
2019-02-17 02:00:00 8.2 3 Sur 13 Sudoeste 0 1003.7 -0.8 67
2019-02-17 01:00:00 8.1 5 Sur 22 Oeste 0 1004.3 0.4 69
2019-02-17 00:00:00 11.7 13 Oeste 22 Oeste 0 1004.5 0.7 57
2019-02-16 23:00:00 11.8 12 Oeste 26 Sudoeste 0 1004.5 0.7 59
2019-02-16 22:00:00 13.3 16 Sudoeste 22 Sudoeste 0 1003.9 0.6 52
2019-02-16 21:00:00 14.3 10 Sudoeste 17 Sudoeste 0 1003.8 0.3 48
2019-02-16 20:00:00 13 6 Sudoeste 13 Sudoeste 0 1003.8 -0.1 54
2019-02-16 19:00:00 14.6 6 Sudeste 9 Sudeste 0 1003.3 -1.3 56
2019-02-16 18:00:00 18.2 0 Calma -- -- 0 1003.5 -1.6 45
2019-02-16 17:00:00 19.2 0 Calma 8 Noroeste 0 1003.9 -2.1 35
2019-02-16 16:00:00 17.7 0 Calma 9 Noroeste 0 1004.6 -2.3 36
2019-02-16 15:00:00 17.8 5 Oeste 11 Noroeste 0 1005.1 -2.4 38
2019-02-16 14:00:00 16.5 6 Norte 11 Noroeste 0 1006 -1.7 50
2019-02-16 13:00:00 17.4 0 Calma 21 Sudoeste 0 1006.9 -1.5 47
2019-02-16 12:00:00 14.6 13 Sudoeste 28 Sudoeste 0 1007.5 -1.1 46
2019-02-16 11:00:00 10.9 21 Sudoeste 32 Sudoeste 0 1007.7 -0.9 56
2019-02-16 10:00:00 9.5 14 Sudoeste 28 Sur 0 1008.4 -0.3 61
2019-02-16 09:00:00 7.5 17 Sur 30 Sur 0 1008.6 -0.2 69
2019-02-16 08:00:00 7.3 18 Sudoeste 26 Sudoeste 0 1008.6 -0.4 69
2019-02-16 07:00:00 8 13 Sudoeste 26 Sudoeste 0 1008.7 -0.9 66
2019-02-16 06:00:00 8 22 Sur 30 Sudoeste 0 1008.8 -1.7 68
2019-02-16 05:00:00 8.8 21 Sur 32 Sur 0 1009 -2.1 65
2019-02-16 04:00:00 9.2 18 Sur 26 Sudoeste 0 1009.6 -1.6 64
2019-02-16 03:00:00 8.9 16 Sudoeste 24 Sur 0 1010.5 -0.9 66
2019-02-16 02:00:00 9.4 13 Sudoeste 18 Sur 0 1011.1 0.1 63
2019-02-16 01:00:00 9.5 9 Sudoeste 18 Sudoeste 0 1011.2 0.5 63
2019-02-16 00:00:00 10 11 Sudoeste 17 Sudoeste 0 1011.4 1 61
2019-02-15 23:00:00 10.5 0 Calma 17 Sur 0 1011 0.4 57
2019-02-15 22:00:00 11.4 13 Sur 18 Sur 0 1010.7 0.4 56
2019-02-15 21:00:00 10.5 6 Sur 9 Sur 0 1010.4 0.3 56
2019-02-15 20:00:00 10.8 0 Calma 9 Sur 0 1010.6 0.7 54
2019-02-15 19:00:00 11.7 0 Calma 2 Sur 0 1010.3 0.5 64
2019-02-15 18:00:00 14.4 0 Calma 9 Norte 0 1010.1 0.1 54
2019-02-15 17:00:00 16.4 6 Noroeste 13 Oeste 0 1009.9 0.2 41
2019-02-15 16:00:00 16.4 8 Noroeste 17 Oeste 0 1009.8 -0.5 41
2019-02-15 15:00:00 16.1 10 Noroeste 18 Noroeste 0 1010 -0.4 43
2019-02-15 14:00:00 18.4 5 Noroeste 11 Noroeste 0 1009.7 -0.1 41
2019-02-15 13:00:00 17.4 4 Noroeste 17 Sudoeste 0 1010.3 0.8 39
2019-02-15 12:00:00 16.6 11 Sudoeste 24 Sudoeste 0 1010.4 1.3 41
2019-02-15 11:00:00 13 20 Sudoeste 30 Sudoeste 0 1009.8 1.1 47
2019-02-15 10:00:00 11.5 20 Sudoeste 33 Sudoeste 0 1009.5 1 49
2019-02-15 09:00:00 10.2 5 Sudoeste 32 Sudoeste 0 1009.1 0.8 52
2019-02-15 08:00:00 10.7 23 Sudoeste 37 Sudoeste 0 1008.7 0.7 50
2019-02-15 07:00:00 10.1 21 Sudoeste 32 Sur 0 1008.5 0.3 54
2019-02-15 06:00:00 10.6 20 Sudoeste 30 Sudoeste 0 1008.3 -0.2 53
2019-02-15 05:00:00 11.2 19 Sudoeste 33 Sur 0 1008 -0.4 51
2019-02-15 04:00:00 11.7 21 Sudoeste 30 Sur 0 1008.2 -0.2 51
2019-02-15 03:00:00 12 19 Sudoeste 28 Sur 0 1008.5 0.4 51
2019-02-15 02:00:00 12 18 Sudoeste 26 Sudoeste 0 1008.4 0.5 54
2019-02-15 01:00:00 12.1 16 Sudoeste 26 Sudoeste 0 1008.4 0.6 56
2019-02-15 00:00:00 11.8 17 Sudoeste 28 Sur 0 1008.1 0.1 62
2019-02-14 23:00:00 11.2 15 Sur 22 Sur 0 1007.9 -0.2 68
2019-02-14 22:00:00 9.7 10 Sudoeste 15 Sudoeste 0 1007.8 0 78
2019-02-14 21:00:00 10 3 Noroeste 13 Sudeste 0 1008 0.3 79
2019-02-14 20:00:00 10.2 9 Sudeste 13 Sudeste 0 1008.1 0.3 80
2019-02-14 19:00:00 12.3 7 Sudeste 13 Sudeste 0 1007.8 -0.4 71
2019-02-14 18:00:00 15.8 6 Este 18 Este 0 1007.7 -1.2 57
2019-02-14 17:00:00 17.5 12 Este 18 Este 0 1007.8 -1.8 53
2019-02-14 16:00:00 16.8 8 Este 13 Este 0 1008.2 -2.1 62
2019-02-14 15:00:00 16.5 6 Nordeste 11 Nordeste 0 1008.9 -1.8 60
2019-02-14 14:00:00 15.3 6 Nordeste 11 Norte 0 1009.6 -1.4 61
2019-02-14 13:00:00 15.6 4 Nordeste 11 Oeste 0 1010.3 -0.9 57
2019-02-14 12:00:00 13.8 8 Sur 24 Sur 0 1010.7 -0.4 45
2019-02-14 11:00:00 10.4 18 Sur 26 Sur 0 1011 0 56
2019-02-14 10:00:00 8.4 17 Sur 37 Sudoeste 0 1011.2 0.2 63
2019-02-14 09:00:00 6.7 22 Sur 32 Sudoeste 0 1011.1 0 68
2019-02-14 08:00:00 6.3 19 Sudoeste 30 Sudoeste 0 1011 0 73
2019-02-14 07:00:00 6.3 15 Sudoeste 26 Sudoeste 0 1011 -0.3 75
2019-02-14 06:00:00 6.7 20 Sudoeste 28 Sudoeste 0 1011.1 -0.5 75
2019-02-14 05:00:00 6.6 18 Sur 30 Sur 0 1011 -1 78
2019-02-14 04:00:00 7.2 15 Sudoeste 28 Sudoeste 0 1011.3 -0.9 76
2019-02-14 03:00:00 7.1 17 Sudoeste 28 Sur 0 1011.6 -1.1 77
2019-02-14 02:00:00 7.7 17 Sudoeste 28 Sudoeste 0 1012 -1.1 75
2019-02-14 01:00:00 7.9 15 Sudoeste 24 Sur 0 1012.2 -0.8 74
2019-02-14 00:00:00 8.4 13 Sudoeste 22 Sudoeste 0 1012.7 -0.2 72
2019-02-13 23:00:00 7.8 9 Sudoeste 17 Sudoeste 0 1013.1 0.2 74
2019-02-13 22:00:00 8.3 12 Sudoeste 17 Sudoeste 0 1013 0.4 72
2019-02-13 21:00:00 8.5 6 Sudoeste 9 Sur 0 1012.9 0.3 72
2019-02-13 20:00:00 9.4 0 Calma -- -- 0 1012.9 0.2 70
2019-02-13 19:00:00 11.6 5 Sudeste 8 Sudeste 0 1012.6 -0.1 61
2019-02-13 18:00:00 14.3 0 Calma 8 Sudeste 0 1012.6 -0.1 53
2019-02-13 17:00:00 14.7 0 Calma 9 Noroeste 0 1012.7 -0.5 47
2019-02-13 16:00:00 15.4 5 Noroeste 11 Noroeste 0 1012.7 -1 49
2019-02-13 15:00:00 14.5 5 Noroeste 9 Norte 0 1012.7 -1 57
2019-02-13 14:00:00 13.3 5 Norte 11 Norte 0 1013.2 -0.5 60
2019-02-13 13:00:00 13.8 4 Noroeste 11 Sur 0 1013.7 -0.2 61
2019-02-13 12:00:00 12.9 8 Sudoeste 22 Sudoeste 0 1013.7 0.1 50
2019-02-13 11:00:00 10 13 Sudoeste 28 Sur 0 1013.7 0.4 57
2019-02-13 10:00:00 7.8 13 Sudoeste 28 Sudoeste 0 1013.9 0.7 64
2019-02-13 09:00:00 6 16 Sudoeste 28 Sudoeste 0 1013.6 0.3 70
2019-02-13 08:00:00 5.8 18 Sudoeste 30 Sudoeste 0 1013.3 -0.1 72
2019-02-13 07:00:00 5.2 13 Sudoeste 26 Sudoeste 0 1013.2 -0.6 79
2019-02-13 06:00:00 5.3 15 Sudoeste 26 Sur 0 1013.3 -0.7 81
2019-02-13 05:00:00 5.3 14 Sudoeste 24 Sudoeste 0 1013.4 -0.9 81
2019-02-13 04:00:00 4.8 10 Sudoeste 22 Sudoeste 0 1013.8 -0.7 89
2019-02-13 03:00:00 5.3 13 Sudoeste 24 Sudoeste 0 1014 -0.6 87
2019-02-13 02:00:00 5.5 16 Sudoeste 21 Sudoeste 0 1014.3 -0.6 88
2019-02-13 01:00:00 3.6 10 Sur 13 Sur 0 1014.5 -0.5 94
2019-02-13 00:00:00 4 9 Sur 15 Sudeste 0 1014.6 -0.4 93
2019-02-12 23:00:00 4.9 6 Sur 18 Sudeste 0 1014.9 -0.1 94
2019-02-12 22:00:00 6.3 17 Sudeste 24 Sudeste 0 1015 0.4 90
2019-02-12 21:00:00 5.9 17 Sudeste 21 Sudeste 0 1015 0.6 93
2019-02-12 20:00:00 8 17 Sudeste 26 Este 0 1015 0.4 85
2019-02-12 19:00:00 9.4 19 Este 26 Este 0 1014.6 -0.2 79
2019-02-12 18:00:00 11 13 Este 24 Este 0 1014.4 -0.8 69
2019-02-12 17:00:00 11.9 15 Este 24 Este 0 1014.6 -1.1 64
2019-02-12 16:00:00 12.9 11 Este 26 Este -- 1014.8 -1.6 61
2019-02-12 15:00:00 12.9 12 Este 26 Sudeste -- 1015.2 -1.7 62
2019-02-12 14:00:00 13.4 15 Sudeste 26 Sudeste -- 1015.7 -1.4 58
2019-02-12 13:00:00 12.2 19 Sudeste 28 Sudeste -- 1016.4 -0.9 62
2019-02-12 12:00:00 10.6 17 Este 26 Sudeste -- 1016.9 -0.5 63
2019-02-12 11:00:00 8.4 8 Sur 17 Sur -- 1017.1 -0.1 76
2019-02-12 10:00:00 5.2 13 Sur 22 Sur 0 1017.3 0.5 84
2019-02-12 09:00:00 3.8 16 Sur 21 Sudoeste 0 1017.4 0.6 88
2019-02-12 08:00:00 3.9 14 Sur 26 Sur 0 1017.2 0.2 89
2019-02-12 07:00:00 3.9 15 Sur 22 Sur 0 1016.8 -0.2 89
2019-02-12 06:00:00 4.7 14 Sur 22 Sur 0 1016.8 -0.3 87
2019-02-12 05:00:00 4.6 15 Sur 24 Sudoeste 0 1017 0 89
2019-02-12 04:00:00 4.3 12 Sur 21 Sudoeste 0 1017 -0.3 90
2019-02-12 03:00:00 4.9 13 Sur 18 Sur 0 1017.1 -0.3 91
2019-02-12 02:00:00 3.3 9 Sur 13 Sur 0 1017 -0.8 92
2019-02-12 01:00:00 5.5 10 Sur 15 Sudeste 0 1017.3 -0.8 89
2019-02-12 00:00:00 5.2 12 Sur 17 Sudeste 0 1017.4 -1 89
2019-02-11 23:00:00 5.2 13 Sudeste 18 Sudeste 0 1017.8 -0.5 91
2019-02-11 22:00:00 5.1 12 Sudeste 17 Sudeste 0 1018.1 0.3 91
2019-02-11 21:00:00 5.9 8 Sur -- -- 0 1018.4 1.4 91
2019-02-11 20:00:00 7.2 13 Este 15 Este 0 1018.3 1.5 87
2019-02-11 19:00:00 9.1 6 Este 13 Este 0 1017.8 1.3 79
2019-02-11 18:00:00 10.7 5 Nordeste 17 Nordeste 0 1017 -0.1 72
2019-02-11 17:00:00 11.4 7 Nordeste 18 Nordeste 0 1016.8 -0.6 68
2019-02-11 16:00:00 12.4 8 Este 15 Este 0 1016.5 -1.1 62
2019-02-11 15:00:00 11.3 5 Norte 15 Norte 0 1017.1 -0.5 68
2019-02-11 14:00:00 12.3 9 Norte 13 Noroeste 0 1017.4 0.4 62
2019-02-11 13:00:00 12.3 7 Oeste 15 Oeste 0 1017.6 1.2 59
2019-02-11 12:00:00 10.6 5 Sudoeste 15 Sudoeste 0 1017.6 1.9 67
2019-02-11 11:00:00 8.5 11 Sudoeste 21 Sudoeste 0 1017 1.8 70
2019-02-11 10:00:00 6.9 14 Sudoeste 30 Sur 0 1016.4 1.3 76
2019-02-11 09:00:00 5.6 15 Sudoeste 26 Sudoeste 0 1015.7 1.3 81
2019-02-11 08:00:00 5.7 15 Sudoeste 22 Sudoeste 0 1015.2 1 82
2019-02-11 07:00:00 6.6 12 Sudoeste 18 Sudoeste 0 1015.1 1.2 78
2019-02-11 06:00:00 6.5 11 Sudoeste 17 Sudoeste 0 1014.4 1 82
2019-02-11 05:00:00 7 9 Sudoeste 18 Oeste 0 1014.2 0.9 81
2019-02-11 04:00:00 7.2 9 Sudoeste 13 Sudoeste 0 1013.9 0.8 76
2019-02-11 03:00:00 6.7 10 Sudoeste 18 Sudoeste 0 1013.4 0.8 79
2019-02-11 02:00:00 6.6 10 Sudoeste 17 Sudoeste 0 1013.3 1.1 80
2019-02-11 01:00:00 7 10 Sudoeste 17 Oeste 0 1013.1 1.5 79
2019-02-11 00:00:00 7.8 13 Oeste 28 Oeste 0.1 1012.6 1.5 80
2019-02-10 23:00:00 7 9 Sudoeste 13 Sudoeste 0 1012.2 1.5 77
2019-02-10 22:00:00 7.4 10 Sudoeste 17 Oeste 0 1011.6 1.9 76
2019-02-10 21:00:00 8.2 13 Oeste 30 Oeste 0 1011.1 2.1 72
2019-02-10 20:00:00 8.9 14 Oeste 32 Oeste 0 1010.7 2.5 73
2019-02-10 19:00:00 9.2 17 Oeste 35 Oeste 0 1009.7 2.2 76
2019-02-10 18:00:00 9.2 15 Oeste 37 Oeste 0.1 1009 2.1 85
2019-02-10 17:00:00 9.6 27 Oeste 46 Oeste 0.3 1008.2 1.8 83
2019-02-10 16:00:00 10.2 28 Oeste 46 Noroeste 0 1007.5 1.8 73
2019-02-10 15:00:00 9.6 29 Oeste 45 Oeste 0.1 1006.9 1.9 81
2019-02-10 14:00:00 10.4 24 Noroeste 48 Oeste 0 1006.4 2.4 74
2019-02-10 13:00:00 10.8 27 Oeste 46 Oeste 0.2 1005.7 3 84
2019-02-10 12:00:00 10 22 Oeste 54 Oeste 0 1005 4.2 85
2019-02-10 11:00:00 9.7 37 Oeste 61 Oeste 0.2 1004 5 90
2019-02-10 10:00:00 10.1 26 Oeste 52 Oeste 0.3 1002.7 6.5 82
2019-02-10 09:00:00 9.4 41 Oeste 61 Oeste 2.4 1000.8 8.5 96
2019-02-10 08:00:00 9.5 44 Oeste 76 Oeste 4.3 999 5.7 96
2019-02-10 07:00:00 15.7 42 Oeste 91 Sudoeste 0.6 996.2 2.1 59
2019-02-10 06:00:00 16.3 49 Sudoeste 105 Sudoeste 0 992.3 -2.6 51
2019-02-10 05:00:00 14.9 22 Sudoeste 50 Oeste 0.1 993.3 -2.5 59
2019-02-10 04:00:00 16 8 Oeste 41 Sudoeste 0 994.1 -2.2 49
2019-02-10 03:00:00 15.8 30 Oeste 50 Sudoeste 0 994.9 -2 49
2019-02-10 02:00:00 16 27 Sudoeste 46 Oeste 0 995.8 -1.4 46
2019-02-10 01:00:00 15.4 17 Oeste 45 Sudoeste 0 996.3 -1.9 49
2019-02-10 00:00:00 15.3 22 Oeste 46 Sudoeste 0 996.9 -1.6 50
2019-02-09 23:00:00 15.8 33 Sudoeste 58 Sudoeste 0 997.2 -1.7 48
2019-02-09 22:00:00 15.4 22 Sudoeste 37 Sudoeste 0 998.2 -1.1 45
2019-02-09 21:00:00 14.2 7 Sur 21 Sudoeste 0 998.5 -1 48
2019-02-09 20:00:00 14.8 7 Sudoeste 33 Sur 0 998.9 -1.1 46
2019-02-09 19:00:00 15.3 11 Sudoeste 28 Oeste 0 999.3 -1 46
2019-02-09 18:00:00 14.7 11 Sudoeste 28 Oeste 0 999.5 -1 53
2019-02-09 17:00:00 14.4 0 Calma 13 Oeste 0 1000 -1.2 66
2019-02-09 16:00:00 14.6 8 Nordeste 13 Noroeste 0 1000.3 -1.5 66
2019-02-09 15:00:00 15 0 Calma 9 Noroeste 0 1000.5 -1.8 58
2019-02-09 14:00:00 14.9 6 Norte 11 Norte 0 1001.2 -1.6 64
2019-02-09 13:00:00 17.2 4 Sudoeste 11 Sudoeste 0 1001.8 -1.5 48
2019-02-09 12:00:00 16.6 4 Sudeste 13 Sur 0 1002.3 -1 48
2019-02-09 11:00:00 15.5 8 Sudeste 21 Sur 0 1002.8 -0.1 53
2019-02-09 10:00:00 12.8 6 Sur 13 Sur 0 1003.3 0.3 61
2019-02-09 09:00:00 10.1 7 Sudeste 18 Oeste 0 1003.3 0.1 69
2019-02-09 08:00:00 13 9 Sudoeste 21 Oeste 0 1002.9 -0.1 55
2019-02-09 07:00:00 13.1 11 Sudoeste 21 Sudoeste 0 1003 -0.6 57
2019-02-09 06:00:00 12.8 9 Oeste 30 Oeste 0 1003.2 -0.1 58
2019-02-09 05:00:00 12.9 15 Oeste 28 Oeste 0 1003 -0.1 57
2019-02-09 04:00:00 13.7 12 Oeste 39 Sudoeste 0 1003.6 0.9 56
2019-02-09 03:00:00 13.9 20 Sudoeste 45 Sudoeste 0 1003.3 0.5 54
2019-02-09 02:00:00 14.2 29 Sudoeste 50 Sudoeste 0 1003.1 0.7 53
2019-02-09 01:00:00 14.4 30 Sudoeste 52 Sudoeste 0 1002.7 0.4 53
2019-02-09 00:00:00 14.3 26 Sudoeste 45 Sudoeste 0 1002.8 0.7 54
2019-02-08 23:00:00 13.9 15 Sudoeste 45 Oeste 0 1002.4 0.7 56
2019-02-08 22:00:00 14.3 29 Oeste 48 Oeste 0 1002.3 0.7 55
2019-02-08 21:00:00 13.9 24 Oeste 39 Oeste 0 1002.1 1.3 57
2019-02-08 20:00:00 14.5 27 Oeste 54 Oeste 0 1001.7 0.9 55
2019-02-08 19:00:00 14.6 23 Oeste 42 Oeste 0 1001.6 1.1 56
2019-02-08 18:00:00 15.3 23 Oeste 58 Oeste 0 1000.8 -0.1 52
2019-02-08 17:00:00 15.7 21 Oeste 35 Oeste 0 1000.8 -1.3 52
2019-02-08 16:00:00 16.3 16 Oeste 30 Oeste 0 1000.5 -2.5 49
2019-02-08 15:00:00 16.5 19 Sudoeste 41 Sudoeste 0 1000.9 -2.9 45
2019-02-08 14:00:00 15.6 19 Sudoeste 41 Sudoeste 0 1002.1 -2.2 46
2019-02-08 13:00:00 13.9 20 Sudoeste 35 Sur 0 1003 -1.5 53
2019-02-08 12:00:00 10.1 18 Sur 26 Sur 0 1003.8 -0.7 74
2019-02-08 11:00:00 7.7 12 Sudoeste 21 Sudoeste 0 1004.3 -0.3 80
2019-02-08 10:00:00 5.2 16 Sudoeste 28 Sudoeste 0 1004.5 -0.1 87
2019-02-08 09:00:00 3.5 14 Sudoeste 26 Sudoeste 0 1004.5 -0.1 93
2019-02-08 08:00:00 3.5 13 Sudoeste 21 Sudoeste 0 1004.6 -0.3 93
2019-02-08 07:00:00 3.9 12 Sudoeste 17 Sur 0 1004.6 -1.4 93
2019-02-08 06:00:00 4.3 13 Sudoeste 24 Sudoeste 0 1004.6 -1.8 91
2019-02-08 05:00:00 4.7 16 Sudoeste 22 Sudoeste 0 1004.9 -1.8 93
2019-02-08 04:00:00 4.5 9 Sudoeste 21 Sudoeste 0 1006 -1.1 92
2019-02-08 03:00:00 5.6 13 Sudoeste 22 Sur 0 1006.4 -1.4 91
2019-02-08 02:00:00 5.7 16 Sudoeste 24 Sudoeste 0 1006.7 -1.3 92
2019-02-08 01:00:00 6.1 13 Sudoeste 18 Sudoeste 0 1007.1 -1 90
2019-02-08 00:00:00 5.9 9 Sudoeste 15 Sudoeste 0 1007.8 -0.8 89
2019-02-07 23:00:00 6.8 8 Sudoeste 15 Sudoeste 0 1008 -0.7 86
2019-02-07 22:00:00 7.3 12 Sudoeste 17 Sudoeste 0 1008.1 -0.7 87
2019-02-07 21:00:00 6.6 4 Sur 9 Sur 0 1008.6 -0.3 88
2019-02-07 20:00:00 7.1 5 Sur 11 Sudoeste 0 1008.7 -0.3 88
2019-02-07 19:00:00 9.6 2 Oeste 9 Noroeste 0 1008.8 -0.2 75
2019-02-07 18:00:00 10.9 6 Noroeste 17 Noroeste 0 1008.9 -0.4 74
2019-02-07 17:00:00 12.3 12 Noroeste 21 Noroeste 0 1009 -0.8 69
2019-02-07 16:00:00 12.8 9 Noroeste 18 Noroeste 0 1009 -1.3 66
2019-02-07 15:00:00 12.8 10 Noroeste 35 Oeste 0 1009.3 -1 63
2019-02-07 14:00:00 12.2 24 Oeste 37 Noroeste 0 1009.8 -0.5 63
2019-02-07 13:00:00 11.9 25 Oeste 35 Oeste 0 1010.3 0.3 65
2019-02-07 12:00:00 11.3 20 Oeste 30 Oeste 0 1010.3 1 69
2019-02-07 11:00:00 10.2 17 Oeste 26 Oeste 0 1010.3 1.4 80
2019-02-07 10:00:00 9.4 15 Oeste 33 Oeste 0 1010 1.7 83
2019-02-07 09:00:00 8.5 20 Oeste 32 Oeste 0 1009.3 1.9 88
2019-02-07 08:00:00 8.6 21 Oeste 37 Noroeste 0.7 1008.9 1.9 93
2019-02-07 07:00:00 10 19 Oeste 41 Noroeste 0.5 1008.3 0.9 89
2019-02-07 06:00:00 11.3 22 Oeste 42 Oeste 0 1007.4 0 76
2019-02-07 05:00:00 11.5 16 Oeste 28 Oeste 0 1007 -0.4 73
2019-02-07 04:00:00 10.7 10 Oeste 42 Oeste 0 1007.4 0.1 82
2019-02-07 03:00:00 11 31 Oeste 46 Oeste 0 1007.4 0.7 86
2019-02-07 02:00:00 11 28 Oeste 41 Oeste 0 1007.4 0.8 87
2019-02-07 01:00:00 11.3 10 Noroeste 22 Oeste 0 1007.3 0.8 81
2019-02-07 00:00:00 11.3 6 Sudoeste 11 Sudoeste 0 1006.7 0.2 70
2019-02-06 23:00:00 11.3 6 Sudoeste 17 Sur 0 1006.6 0 74
2019-02-06 22:00:00 10.6 11 Sudoeste 17 Sudoeste 0 1006.5 0.2 84
2019-02-06 21:00:00 10.5 5 Sudoeste 11 Sudoeste 0 1006.5 0.4 82
2019-02-06 20:00:00 9.1 4 Sur 13 Sur 0 1006.6 0.4 89
2019-02-06 19:00:00 9.7 7 Sudeste 11 Sudeste 0 1006.3 -0.4 84
2019-02-06 18:00:00 11.8 7 Sudeste 11 Sudeste 0 1006.1 -1 81
2019-02-06 17:00:00 12.2 3 Sudeste 9 Noroeste 0 1006.2 -1.6 75
2019-02-06 16:00:00 12.5 4 Nordeste 11 Norte 0 1006.7 -1.9 76
2019-02-06 15:00:00 12.7 6 Norte 13 Noroeste 0 1007.1 -2 74
2019-02-06 14:00:00 12.5 8 Noroeste 13 Noroeste 0 1007.8 -1.6 75
2019-02-06 13:00:00 12.6 9 Noroeste -- -- -- 1008.6 -1 75
2019-02-06 12:00:00 12.4 8 Sudoeste 15 Sudoeste 0 1009.1 -0.7 73
2019-02-06 11:00:00 8.9 9 Sudoeste 22 Sudoeste 0 1009.4 -0.5 81
2019-02-06 10:00:00 8.1 17 Sur 24 Sur 0 1009.6 -0.4 82
2019-02-06 09:00:00 6.5 14 Sudoeste 21 Sur 0 1009.8 -0.7 87
2019-02-06 08:00:00 7 15 Sudoeste 24 Sudoeste 0 1009.9 -1 87
2019-02-06 07:00:00 6.8 18 Sudoeste 28 Sudoeste 0 1010 -1.5 88
2019-02-06 06:00:00 7.1 15 Sudoeste 24 Sudoeste 0 1010.5 -1.4 87
2019-02-06 05:00:00 7.3 16 Sudoeste 24 Sudoeste 0 1010.9 -1.3 88
2019-02-06 04:00:00 7.6 13 Sudoeste 21 Sudoeste 0 1011.5 -0.8 86
2019-02-06 03:00:00 7.8 12 Sudoeste 21 Sudoeste 0 1011.9 -0.7 86
2019-02-06 02:00:00 8.3 12 Sudoeste 24 Sudoeste 0 1012.2 -0.6 85
2019-02-06 01:00:00 8.6 16 Sudoeste 24 Sudoeste 0 1012.3 -0.6 85
2019-02-06 00:00:00 9.4 16 Sudoeste 22 Sudoeste 0 1012.6 -0.2 82
2019-02-05 23:00:00 9.5 15 Sur 21 Sur 0 1012.8 -0.1 82
2019-02-05 22:00:00 10.3 14 Sudoeste 21 Sudoeste 0 1012.9 0.2 80
2019-02-05 21:00:00 8.4 10 Sur 15 Sudeste 0 1012.8 0.3 85
2019-02-05 20:00:00 9.4 8 Sudeste 13 Sudeste 0 1012.9 0.2 81
2019-02-05 19:00:00 10.9 8 Sudeste 9 Sudeste 0 1012.7 -0.1 77
2019-02-05 18:00:00 14.1 0 Calma 8 Norte 0 1012.5 -0.5 68
2019-02-05 17:00:00 14.6 0 Calma 9 Nordeste 0 1012.7 -0.7 65
2019-02-05 16:00:00 14.2 4 Norte 11 Norte 0 1012.8 -1.2 68
2019-02-05 15:00:00 15.1 9 Noroeste 15 Noroeste 0 1013 -1.3 60
2019-02-05 14:00:00 15.7 10 Oeste 15 Oeste 0 1013.4 -0.8 57
2019-02-05 13:00:00 14.7 7 Noroeste 13 Norte 0 1014 0.1 59
2019-02-05 12:00:00 14.2 8 Sudoeste 18 Sudoeste 0 1014.3 0.9 62
2019-02-05 11:00:00 12.4 12 Sudoeste 26 Sudoeste 0 1014.2 1.3 65
2019-02-05 10:00:00 11.3 13 Sudoeste 22 Sudoeste 0 1013.9 1.4 68
2019-02-05 09:00:00 10 13 Sudoeste 21 Sur 0 1013.4 1.1 72
2019-02-05 08:00:00 9.8 10 Sudoeste 21 Sudoeste 0 1012.9 0.6 74
2019-02-05 07:00:00 10.1 12 Sudoeste 26 Sudoeste 0 1012.5 -0.2 72
2019-02-05 06:00:00 11 17 Sudoeste 26 Sudoeste 0 1012.3 -0.4 69
2019-02-05 05:00:00 10.7 15 Sudoeste 26 Sudoeste 0 1012.3 -0.4 71
2019-02-05 04:00:00 10.7 15 Sudoeste 24 Sudoeste 0 1012.7 -0.3 72
2019-02-05 03:00:00 11.1 14 Sudoeste 26 Sudoeste 0 1012.7 -0.1 71
2019-02-05 02:00:00 11.3 14 Sudoeste 21 Sudoeste 0 1012.7 0 71
2019-02-05 01:00:00 11.5 11 Sudoeste 17 Sudoeste 0 1013 0.6 71
2019-02-05 00:00:00 11.8 11 Sudoeste 17 Sudoeste 0 1012.8 0.7 70
2019-02-04 23:00:00 11.4 8 Sudoeste 15 Sudoeste 0 1012.7 0.9 73
2019-02-04 22:00:00 10.3 5 Sudoeste 9 Sudoeste 0 1012.4 0.7 76
2019-02-04 21:00:00 10.8 4 Oeste 11 Oeste 0 1012.1 0.9 76
2019-02-04 20:00:00 10.8 5 Sudoeste 22 Oeste 0 1011.8 0.8 75
2019-02-04 19:00:00 11.4 13 Oeste 18 Noroeste 0 1011.7 1 78
2019-02-04 18:00:00 13 5 Noroeste 13 Oeste 0 1011.2 0.2 71
2019-02-04 17:00:00 13.5 9 Sudoeste 21 Sudoeste 0 1011 -0.4 63
2019-02-04 16:00:00 13.7 11 Sudoeste 18 Sudoeste 0 1010.7 -0.9 61
2019-02-04 15:00:00 13.7 5 Oeste 15 Oeste 0 1011 -0.7 56
2019-02-04 14:00:00 13.3 10 Oeste 18 Sudoeste 0 1011.4 -0.4 53
2019-02-04 13:00:00 12.8 12 Sudoeste 22 Sudoeste 0 1011.6 -0.2 50
2019-02-04 12:00:00 11.5 11 Sudoeste 22 Sudoeste 0 1011.7 0.3 51
2019-02-04 11:00:00 9.1 15 Sudoeste 26 Sudoeste 0 1011.8 1 49
2019-02-04 10:00:00 8 12 Sudoeste 22 Sudoeste 0 1011.8 0.6 45
2019-02-04 09:00:00 5.9 15 Sudoeste 30 Sur 0 1011.4 -0.4 53
2019-02-04 08:00:00 5.4 21 Sudoeste 32 Sudoeste 0 1010.8 -1.6 54
2019-02-04 07:00:00 3.6 21 Sudoeste 32 Sur 0 1011.2 -1.7 67
2019-02-04 06:00:00 4 15 Sudoeste 26 Sur 0 1011.8 -1.4 64
2019-02-04 05:00:00 3.6 15 Sudoeste 26 Sur 0 1012.4 -0.5 69
2019-02-04 04:00:00 4.3 18 Sudoeste 30 Sur 0 1012.9 -0.2 68
2019-02-04 03:00:00 4.4 16 Sudoeste 28 Sudoeste 0 1013.2 -0.7 65
2019-02-04 02:00:00 4.3 17 Sudoeste 28 Sudoeste 0 1012.9 -1 70
2019-02-04 01:00:00 4.2 17 Sudoeste 26 Sudoeste 0 1013.1 -1.4 74
2019-02-04 00:00:00 4.8 14 Sur 22 Sur 0 1013.9 -0.7 74
2019-02-03 23:00:00 4.8 17 Sur 22 Sur 0 1013.9 -0.5 75
2019-02-03 22:00:00 5.2 15 Sudoeste 18 Sur 0 1014.5 0.6 76
2019-02-03 21:00:00 4.7 9 Sur 17 Sudeste 0 1014.6 1.1 81
2019-02-03 20:00:00 4 14 Sudeste 17 Sudeste 0 1014.4 1 85
2019-02-03 19:00:00 5.8 10 Sudeste 13 Este 0 1013.9 0.1 78
2019-02-03 18:00:00 8.3 6 Este 11 Este 0 1013.5 -0.8 68
2019-02-03 17:00:00 9.9 4 Nordeste 11 Norte 0 1013.4 -1.5 63
2019-02-03 16:00:00 10.4 8 Norte 17 Este 0 1013.8 -1.3 61
2019-02-03 15:00:00 10.7 4 Sur 22 Sur 0 1014.3 -1.3 56
2019-02-03 14:00:00 10.3 9 Sur 18 Sudoeste 0 1014.9 -0.2 59
2019-02-03 13:00:00 9.7 9 Sudoeste 17 Sudoeste 0 1015.1 0.8 63
2019-02-03 12:00:00 8 14 Sudoeste 21 Sur 0 1015.6 1.8 69
2019-02-03 11:00:00 5.9 15 Sudoeste 28 Sudoeste 0 1015.1 2.1 75
2019-02-03 10:00:00 4.2 16 Sudoeste 28 Sur 0 1014.3 1.4 82
2019-02-03 09:00:00 2.8 18 Sudoeste 28 Sudoeste 0 1013.8 1.8 87
2019-02-03 08:00:00 3.1 15 Sudoeste 28 Sudoeste 0 1013 1.4 86
2019-02-03 07:00:00 3 18 Sudoeste 28 Sudoeste 0 1012.9 1.4 87
2019-02-03 06:00:00 2.7 17 Sudoeste 24 Sudoeste 0 1012 1 90
2019-02-03 05:00:00 3.2 14 Sudoeste 21 Sudoeste 0 1011.6 0.7 88
2019-02-03 04:00:00 3.9 11 Sudoeste 17 Sudoeste 0 1011.5 1.3 85
2019-02-03 03:00:00 3.5 12 Sudoeste 18 Sudoeste 0 1011 1.5 86
2019-02-03 02:00:00 4.1 10 Sudoeste 21 Sur 0 1010.9 1.8 86
2019-02-03 01:00:00 4.9 3 Sur 13 Sur 0 1010.2 2.3 80
2019-02-03 00:00:00 6 7 Sur 21 Norte 0.1 1009.5 2.1 70
2019-02-02 23:00:00 7.2 11 Nordeste 32 Norte 0 1009.1 2.6 55
2019-02-02 22:00:00 7.8 6 Oeste 21 Noroeste 0 1007.9 2.2 62
2019-02-02 21:00:00 7.7 8 Oeste 28 Noroeste 0 1007.4 2.7 69
2019-02-02 20:00:00 7.6 12 Noroeste 33 Noroeste 0.5 1006.5 2.7 70
2019-02-02 19:00:00 7.2 16 Noroeste 39 Noroeste 0 1005.7 2.6 78
2019-02-02 18:00:00 7.8 19 Noroeste 42 Noroeste 0 1004.7 -- 70
2019-02-02 17:00:00 7.5 17 Noroeste -- -- -- 1003.8 -- 78
2019-02-02 16:00:00 8.2 26 Noroeste -- -- -- 1003.1 -- 67
2019-02-02 15:00:00 -- -- -- -- -- -- -- -- --
2019-02-02 14:00:00 -- -- -- -- -- -- -- -- --
2019-02-02 13:00:00 -- -- -- -- -- -- -- -- --
2019-02-02 12:00:00 -- -- -- -- -- -- -- -- --
2019-02-02 11:00:00 7.9 9 Noroeste 32 Noroeste 0.1 1000.6 3.9 70
2019-02-02 10:00:00 7.1 12 Oeste 37 Noroeste 0 999.5 4 69
2019-02-02 09:00:00 5.9 7 Oeste 45 Norte 0.1 998.1 3.8 77
2019-02-02 08:00:00 6.8 14 Noroeste 45 Oeste 0 996.7 4.1 80
2019-02-02 07:00:00 5 21 Oeste 50 Noroeste 0 995.5 4.1 84
2019-02-02 06:00:00 5.1 8 Norte 55 Noroeste 2.3 994.3 4.1 82
2019-02-02 05:00:00 7.7 29 Noroeste 58 Noroeste 0 992.6 3.6 76
2019-02-02 04:00:00 7.6 20 Noroeste 50 Noroeste 0 991.4 4.2 66
2019-02-02 03:00:00 7.2 29 Noroeste 61 Noroeste 0.5 990.2 4.8 68
2019-02-02 02:00:00 5.7 30 Noroeste 58 Noroeste 1 989 5.3 87
2019-02-02 01:00:00 7 33 Noroeste 71 Noroeste 0 987.2 5.4 81
2019-02-02 00:00:00 6.7 21 Noroeste 65 Norte 0.6 985.4 5.8 83
2019-02-01 23:00:00 7.6 28 Noroeste 63 Noroeste 0.2 983.7 6.2 77
2019-02-01 22:00:00 8.3 34 Noroeste 74 Noroeste 0.1 981.8 7.2 79
2019-02-01 21:00:00 8 40 Noroeste 80 Noroeste 1.3 979.6 6.4 84
2019-02-01 20:00:00 8.2 36 Noroeste 80 Noroeste 0.7 977.5 5.3 87
2019-02-01 19:00:00 7.9 36 Noroeste 63 Noroeste 0.3 974.6 3.2 87
2019-02-01 18:00:00 7.1 33 Noroeste 67 Noroeste 3.1 973.2 2.1 91
2019-02-01 17:00:00 6.7 22 Oeste 46 Oeste 0.1 972.2 1.6 77
2019-02-01 16:00:00 7.7 32 Oeste 50 Sudoeste 0.1 971.4 1.1 71
2019-02-01 15:00:00 6.8 26 Oeste 61 Oeste 0.6 971.1 1.5 75
2019-02-01 14:00:00 8.3 19 Sudoeste 35 Oeste 0 970.6 1.3 71
2019-02-01 13:00:00 8.8 26 Oeste 46 Oeste 0 970.3 0.3 62
2019-02-01 12:00:00 8.4 21 Sudoeste 35 Sudoeste 0 969.6 -0.7 62
2019-02-01 11:00:00 6.7 18 Sudoeste 30 Sudoeste 0 969.3 -0.6 76
2019-02-01 10:00:00 5 3 Sudoeste 50 Oeste 1.5 970 -0.6 89
2019-02-01 09:00:00 6.6 37 Oeste 59 Sudoeste 0.7 970.3 -0.5 73
2019-02-01 08:00:00 6.6 21 Oeste 61 Oeste 0 969.9 -0.1 58
2019-02-01 07:00:00 6.2 17 Sudoeste 82 Oeste 0.1 970.6 -0.6 68
2019-02-01 06:00:00 6.1 28 Sudoeste 71 Oeste 0.4 970.8 -1 82
2019-02-01 05:00:00 8.9 27 Sudoeste 50 Oeste 0 970 -2.9 60
2019-02-01 04:00:00 8.6 22 Sudoeste 54 Oeste 0 971.2 -3.5 64
2019-02-01 03:00:00 9 29 Sudoeste 55 Sudoeste 0 971.8 -3.4 62
2019-02-01 02:00:00 9.1 26 Sudoeste 72 Sudoeste 0 972.9 -2.5 66
2019-02-01 01:00:00 10 20 Oeste 52 Sudoeste 0 974.7 -0.7 61
2019-02-01 00:00:00 9 14 Oeste 54 Oeste 0 975.2 -0.9 72
2019-01-31 23:00:00 10.7 32 Oeste 48 Oeste 0 975.4 -0.9 67
2019-01-31 22:00:00 11.4 26 Oeste 55 Oeste 0 975.4 -1.1 55
2019-01-31 21:00:00 11.4 20 Oeste 42 Oeste 0 976.1 -0.7 73
2019-01-31 20:00:00 11.9 15 Sudoeste 45 Oeste 0 976.3 -0.5 64
2019-01-31 19:00:00 11.8 21 Oeste 42 Oeste 0 976.5 -0.5 68
2019-01-31 18:00:00 11.5 22 Oeste 65 Oeste 0 976.8 -0.1 79
2019-01-31 17:00:00 11.6 34 Oeste 48 Noroeste 0.2 976.8 -0.5 86
2019-01-31 16:00:00 11 25 Oeste 42 Oeste 3.1 977 -0.9 96
2019-01-31 15:00:00 11 27 Oeste 58 Oeste 7.2 976.9 -1.6 98
2019-01-31 14:00:00 12.8 37 Oeste 52 Oeste 1.1 977.3 -1.3 94
2019-01-31 13:00:00 14.2 23 Oeste 45 Oeste 0.2 977.9 -0.8 87
2019-01-31 12:00:00 14.5 13 Oeste 48 Oeste 0.1 978.5 0.1 85
2019-01-31 11:00:00 13.9 26 Oeste 46 Oeste 0.1 978.6 -0.6 86
2019-01-31 10:00:00 14.4 23 Oeste 41 Oeste 0 978.7 -0.5 79
2019-01-31 09:00:00 13.6 13 Oeste 39 Oeste 0 978.4 -0.9 84
2019-01-31 08:00:00 12.7 21 Oeste 35 Oeste 0.5 979.2 -0.3 93
2019-01-31 07:00:00 12.2 9 Sudoeste 26 Oeste 2.2 979.2 -1.2 95
2019-01-31 06:00:00 12.6 14 Sudoeste 32 Oeste 0.1 979.3 -1.3 90
2019-01-31 05:00:00 12.2 12 Sudoeste 28 Oeste 1.9 979.5 -1.5 95
2019-01-31 04:00:00 11.9 11 Oeste 22 Oeste 1.8 980.4 -1.1 96
2019-01-31 03:00:00 12 10 Sudoeste 33 Oeste 1.4 980.6 -1.1 96
2019-01-31 02:00:00 12 16 Oeste 28 Oeste 2.1 981 -1.5 97
2019-01-31 01:00:00 11.3 13 Oeste 22 Oeste 2 981.5 -1.4 97
2019-01-31 00:00:00 10.8 14 Sudoeste 26 Sur 1.8 981.7 -1.7 94
2019-01-30 23:00:00 10.7 14 Sudoeste 32 Sudoeste 1.3 982.5 -1.4 92
2019-01-30 22:00:00 10.8 18 Sudoeste 30 Sudoeste 0.6 982.9 -1.4 88
2019-01-30 21:00:00 11.1 21 Sudoeste 30 Sudoeste 0 983.4 -1.8 82
2019-01-30 20:00:00 9.8 22 Sudoeste 37 Sudoeste 1.3 983.9 -2.9 90
2019-01-30 19:00:00 9.6 22 Sudoeste 37 Sudoeste 2.5 984.3 -3.8 88
2019-01-30 18:00:00 9.7 21 Sudoeste 45 Sur 0.9 985.2 -4.8 86
2019-01-30 17:00:00 9.9 20 Sudoeste 39 Sudoeste 0.5 986.8 -4.4 82
2019-01-30 16:00:00 10.3 13 Sudoeste 42 Sudoeste 0.2 988.1 -4.7 77
2019-01-30 15:00:00 11.6 15 Sudoeste 32 Sudoeste 0 990 -3.9 65
2019-01-30 14:00:00 12.1 16 Sudoeste 26 Sudoeste 0 991.2 -3.6 60
2019-01-30 13:00:00 12 16 Sudoeste 33 Sudoeste 0 992.8 -2.9 56
2019-01-30 12:00:00 10.3 18 Sudoeste 39 Sudoeste 0 993.9 -2.2 58
2019-01-30 11:00:00 8.8 17 Sudoeste 32 Sudoeste 0 994.8 -1.4 63
2019-01-30 10:00:00 7.1 21 Sudoeste 32 Sudoeste 0 995.7 -1 67
2019-01-30 09:00:00 6.6 21 Sudoeste 33 Sudoeste 0 996.1 -1.1 70
2019-01-30 08:00:00 5.9 17 Sudoeste 28 Sudoeste 0 996.2 -1.7 73
2019-01-30 07:00:00 6.6 16 Sudoeste 28 Oeste 0 996.7 -1.4 71
2019-01-30 06:00:00 7.2 17 Sudoeste 39 Oeste 0 997.2 -1.5 69
2019-01-30 05:00:00 7.9 26 Oeste 45 Oeste 0 997.9 -0.9 70
2019-01-30 04:00:00 7.5 26 Oeste 41 Oeste 0 998.1 -1.2 69
2019-01-30 03:00:00 7.1 30 Oeste 54 Oeste 0 998.7 -0.5 76
2019-01-30 02:00:00 7 21 Oeste 46 Oeste 0 998.8 -1.2 75
2019-01-30 01:00:00 6.6 23 Oeste 46 Oeste 0.4 999.3 -0.4 82
2019-01-30 00:00:00 6.5 16 Sudoeste 35 Oeste 0 999.2 -0.6 82
2019-01-29 23:00:00 7.1 28 Oeste 50 Norte 1.3 1000 0.7 84
2019-01-29 22:00:00 8.6 32 Oeste 59 Oeste 0 999.7 1.3 69
2019-01-29 21:00:00 9.1 27 Noroeste 54 Noroeste 0 999.8 2.3 66
2019-01-29 20:00:00 9.3 31 Noroeste 55 Noroeste 0 999.3 2.1 67
2019-01-29 19:00:00 9.4 33 Noroeste 58 Norte 0 998.4 2.1 69
2019-01-29 18:00:00 8.8 36 Noroeste 71 Noroeste 1.8 997.5 1.3 82
2019-01-29 17:00:00 8.9 32 Noroeste 72 Oeste 0.5 997.2 1.6 83
2019-01-29 16:00:00 10.1 44 Oeste 76 Oeste 0.1 996.3 2.1 79
2019-01-29 15:00:00 10.5 42 Noroeste 74 Oeste 0.6 996.2 3.9 79
2019-01-29 14:00:00 10.8 55 Oeste 91 Noroeste 0.6 995.6 3 83
2019-01-29 13:00:00 11.2 58 Oeste 93 Oeste 2.5 994.2 0.8 86
2019-01-29 12:00:00 12.3 33 Oeste 76 Oeste 0.1 992.3 -2.3 73
2019-01-29 11:00:00 11.3 31 Sudoeste 58 Sudoeste 0.2 992.6 -3.4 77
2019-01-29 10:00:00 12.4 35 Sudoeste 61 Oeste 0 993.4 -3.1 64
2019-01-29 09:00:00 12.1 29 Sudoeste 55 Oeste 0 994.6 -3.6 64
2019-01-29 08:00:00 11.9 31 Oeste 52 Sudoeste 0 996 -3.5 66
2019-01-29 07:00:00 10.6 22 Sudoeste 33 Sudoeste 0 996.5 -4.3 70
2019-01-29 06:00:00 10 21 Sudoeste 32 Sudoeste 0 998.2 -3.6 74
2019-01-29 05:00:00 9.3 18 Sudoeste 30 Sudoeste 0 999.5 -3.5 76
2019-01-29 04:00:00 9 14 Sudoeste 22 Sudoeste 0 1000.8 -2.9 76
2019-01-29 03:00:00 8.7 12 Sudoeste 21 Sudoeste 0 1001.8 -2.8 77
2019-01-29 02:00:00 8.4 13 Sudoeste 21 Sudoeste 0 1003 -2.1 79
2019-01-29 01:00:00 8.3 9 Sudoeste 28 Oeste 0 1003.7 -1.9 78
2019-01-29 00:00:00 9.6 17 Oeste 32 Oeste 0 1004.6 -1 74
2019-01-28 23:00:00 9.8 20 Oeste 32 Oeste 0 1005.1 -1 75
2019-01-28 22:00:00 9.6 18 Oeste 30 Oeste 0 1005.6 -0.8 76
2019-01-28 21:00:00 9.6 16 Oeste 30 Oeste 0 1005.6 -0.5 77
2019-01-28 20:00:00 9.9 19 Oeste 41 Oeste 0 1006.1 0.2 77
2019-01-28 19:00:00 10.2 27 Oeste 41 Oeste 0 1006.4 0.5 75
2019-01-28 18:00:00 10.3 22 Noroeste 42 Noroeste 0 1006.1 -0.1 79
2019-01-28 17:00:00 10.6 27 Oeste 48 Oeste 0 1005.9 -0.2 81
2019-01-28 16:00:00 10.7 27 Oeste 55 Oeste 0.5 1005.9 0.1 79
2019-01-28 15:00:00 10.4 19 Noroeste 48 Noroeste 0.1 1006.2 0.6 82
2019-01-28 14:00:00 10 19 Noroeste 54 Noroeste 0.3 1006.1 1.4 90
2019-01-28 13:00:00 11.3 17 Noroeste 46 Oeste 0 1005.8 1.6 75
2019-01-28 12:00:00 10.7 29 Oeste 46 Noroeste 0 1005.6 2.2 83
2019-01-28 11:00:00 11 34 Oeste 50 Oeste 0 1004.7 1.8 83
2019-01-28 10:00:00 9.9 35 Oeste 63 Oeste 1 1004.2 1.7 94
2019-01-28 09:00:00 9.7 36 Oeste 61 Oeste 1.7 1003.4 0.5 93
2019-01-28 08:00:00 9.9 35 Oeste 65 Oeste 0.4 1002.9 -0.2 91
2019-01-28 07:00:00 9.9 29 Oeste 58 Oeste 0.1 1002.5 -0.9 89
2019-01-28 06:00:00 10.5 40 Oeste 61 Oeste 0 1002.9 -1.2 83
2019-01-28 05:00:00 10.2 38 Oeste 67 Oeste 0 1003.1 -1.2 86
2019-01-28 04:00:00 9.9 37 Oeste 65 Oeste 0 1003.4 -1.1 88
2019-01-28 03:00:00 9.1 32 Oeste 63 Oeste 0.4 1004.1 -0.8 91
2019-01-28 02:00:00 8.9 39 Oeste 55 Oeste 0.2 1004.3 -1.5 87
2019-01-28 01:00:00 9.1 32 Oeste 52 Oeste 0 1004.5 -1.2 82
2019-01-28 00:00:00 8 16 Sudoeste 39 Oeste 0 1004.9 -1.3 84
2019-01-27 23:00:00 8.7 28 Oeste 48 Sudoeste 0.3 1005.8 -0.2 80
2019-01-27 22:00:00 8.9 26 Oeste 41 Oeste 0.1 1005.7 -0.3 75
2019-01-27 21:00:00 8.8 24 Oeste 42 Oeste 0.2 1006.2 -0.2 79
2019-01-27 20:00:00 9.1 25 Oeste 46 Oeste 0 1006 0.2 76
2019-01-27 19:00:00 9.4 33 Oeste 50 Noroeste 0 1006 0.7 74
2019-01-27 18:00:00 8.8 19 Oeste 42 Oeste 0.1 1006.4 0.8 82
2019-01-27 17:00:00 9.3 28 Oeste 48 Oeste 0 1005.8 -0.1 71
2019-01-27 16:00:00 9.5 30 Oeste 61 Oeste 0.2 1005.3 -0.3 75
2019-01-27 15:00:00 10.8 24 Oeste 54 Oeste 0 1005.6 0.3 70
2019-01-27 14:00:00 10.2 17 Noroeste 48 Oeste 0 1005.9 1.4 69
2019-01-27 13:00:00 10.1 21 Noroeste 59 Oeste 0 1005.6 2.4 72
2019-01-27 12:00:00 9.9 35 Noroeste 54 Noroeste 0.6 1005.3 3.3 79
2019-01-27 11:00:00 9.2 36 Noroeste 68 Norte 2.2 1004.5 3 84
2019-01-27 10:00:00 8.6 45 Oeste 72 Oeste 0.5 1003.2 2.4 87
2019-01-27 09:00:00 8 32 Oeste 58 Oeste 0 1002 1.3 86
2019-01-27 08:00:00 7.9 36 Oeste 71 Oeste 1.9 1001.5 0.5 86
2019-01-27 07:00:00 8.6 36 Oeste 63 Oeste 0.1 1000.8 -0.5 76
2019-01-27 06:00:00 8.5 35 Oeste 59 Oeste 0 1000.7 -0.1 77
2019-01-27 05:00:00 8.3 32 Oeste 59 Oeste 0.9 1001 0.8 86
2019-01-27 04:00:00 8.4 50 Oeste 87 Oeste 0.9 1001.3 0.8 91
2019-01-27 03:00:00 9.2 57 Oeste 80 Oeste 0.4 1000.8 1.1 88
2019-01-27 02:00:00 9.3 40 Oeste 67 Oeste 0 1000.2 0 88
2019-01-27 01:00:00 9.4 41 Oeste 67 Noroeste 0.4 1000.5 -0.1 95
2019-01-27 00:00:00 9.2 14 Sudoeste 32 Oeste 0 999.7 -1.4 91
2019-01-26 23:00:00 8.2 13 Sudoeste 26 Oeste 0 1000.2 -1.3 91
2019-01-26 22:00:00 9.9 17 Oeste 26 Oeste 0 1000.6 -1.4 89
2019-01-26 21:00:00 9.9 14 Oeste 28 Oeste 0 1001.1 -0.7 89
2019-01-26 20:00:00 9.9 14 Oeste 24 Oeste 0 1001.5 -1.1 88
2019-01-26 19:00:00 9.7 13 Noroeste 24 Noroeste 0 1002 -1.3 89
2019-01-26 18:00:00 10.1 11 Oeste 30 Oeste 0 1001.8 -1.9 83
2019-01-26 17:00:00 10.8 19 Oeste 32 Oeste 0 1002.6 -1.5 80
2019-01-26 16:00:00 11.3 19 Oeste 32 Oeste 0 1003.3 -1.7 78
2019-01-26 15:00:00 10.4 14 Noroeste 26 Oeste 0 1003.7 -2.2 81
2019-01-26 14:00:00 11.8 12 Noroeste 15 Noroeste 0 1004.1 -2.2 72
2019-01-26 13:00:00 11.1 9 Sudoeste 32 Sudoeste 0 1005 -1.4 77
2019-01-26 12:00:00 10 9 Sudoeste 18 Sur 0 1005.9 -0.9 78
2019-01-26 11:00:00 7.7 12 Sudoeste 26 Sudoeste 0 1006.3 -0.6 84
2019-01-26 10:00:00 6.5 16 Sudoeste 26 Sudoeste 0 1006.4 -0.4 89
2019-01-26 09:00:00 6.1 14 Sudoeste 21 Sudoeste 0 1006.8 -0.4 90
2019-01-26 08:00:00 6.4 12 Sudoeste 21 Sudoeste 0 1006.9 -0.7 90
2019-01-26 07:00:00 6.7 12 Sudoeste 18 Sudoeste 0 1006.8 -1.1 93
2019-01-26 06:00:00 6.7 10 Sudoeste 17 Sur 0 1007.2 -1.2 95
2019-01-26 05:00:00 6.7 12 Sudoeste 18 Sudoeste 0 1007.6 -1 96
2019-01-26 04:00:00 7 10 Sudoeste 17 Sur 0 1007.9 -1.2 94
2019-01-26 03:00:00 7.5 10 Sudoeste 15 Sudoeste 0 1008.4 -0.8 94
2019-01-26 02:00:00 8 9 Sudoeste 15 Sudoeste 0 1008.6 -1.2 93
2019-01-26 01:00:00 8.3 9 Sudoeste 13 Sudoeste 0 1009.1 -0.8 92
2019-01-26 00:00:00 8.8 8 Sudoeste 15 Sur 0 1009.2 -0.8 91
2019-01-25 23:00:00 8.9 7 Sudoeste 11 Sudoeste 0 1009.8 -0.2 91
2019-01-25 22:00:00 9.2 4 Sudoeste 13 Sudoeste 0 1009.9 0 89
2019-01-25 21:00:00 9.2 4 Sudoeste 9 Sudoeste 0 1010 0.2 90
2019-01-25 20:00:00 8.9 6 Sur 11 Sur 0 1010 0.4 92
2019-01-25 19:00:00 9.6 0 Calma 8 Sur 0 1009.9 0.5 91
2019-01-25 18:00:00 10.6 4 Nordeste 13 Sudeste 0 1009.8 0.3 86
2019-01-25 17:00:00 11.1 6 Oeste 11 Oeste 0 1009.6 0 82
2019-01-25 16:00:00 10.5 6 Oeste 13 Noroeste 0 1009.4 -0.5 91
2019-01-25 15:00:00 10.7 8 Oeste 18 Oeste 0 1009.5 -0.6 93
2019-01-25 14:00:00 12.2 9 Oeste 15 Oeste 0 1009.6 -0.4 84
2019-01-25 13:00:00 11.2 9 Oeste 15 Oeste 0 1009.9 0.3 92
2019-01-25 12:00:00 10.4 7 Sudoeste 11 Oeste 0.1 1010.1 1.5 94
2019-01-25 11:00:00 10.4 4 Sudoeste 8 Oeste 0 1010 2 96
2019-01-25 10:00:00 9.7 5 Sudoeste 21 Sudoeste 0.5 1009.6 2 96
2019-01-25 09:00:00 9.5 4 Oeste 15 Oeste 0.1 1008.6 0.9 96
2019-01-25 08:00:00 9.7 10 Oeste 24 Oeste 0.3 1008 0.6 95
2019-01-25 07:00:00 9.8 9 Oeste 21 Oeste 0 1007.6 0.3 96
2019-01-25 06:00:00 10.1 11 Oeste 17 Oeste 0.3 1007.7 0.4 98
2019-01-25 05:00:00 10.1 6 Oeste 21 Noroeste 2.3 1007.4 -0.1 98
2019-01-25 04:00:00 10.2 12 Oeste 17 Oeste 0.2 1007.3 -0.1 97
2019-01-25 03:00:00 10.3 10 Oeste 18 Oeste 0.2 1007.3 0.3 98
2019-01-25 02:00:00 10.1 14 Oeste 21 Noroeste 2.5 1007.5 0.6 98
2019-01-25 01:00:00 10.2 4 Noroeste 15 Oeste 1.2 1007.4 1.1 97
2019-01-25 00:00:00 10.5 13 Oeste 24 Noroeste 0 1007 1 97
2019-01-24 23:00:00 10.4 4 Noroeste 24 Noroeste 0.9 1006.9 1.4 98
2019-01-24 22:00:00 10.9 8 Oeste 21 Sudoeste 0 1006.3 1.2 91
2019-01-24 21:00:00 10.8 10 Oeste 22 Noroeste 0.1 1006 1.5 96
2019-01-24 20:00:00 10.8 9 Noroeste 24 Noroeste 0.1 1005.5 -- 98
2019-01-24 19:00:00 10.4 9 Noroeste 32 Norte 0.3 1005.1 -- 98
2019-01-24 18:00:00 -3.2 10 Noroeste -- -- -- 1004.5 -- 73
2019-01-24 17:00:00 -- -- -- -- -- -- -- -- --
2019-01-24 16:00:00 -- -- -- -- -- -- -- -- --
2019-01-24 15:00:00 -- -- -- -- -- -- -- -- --
2019-01-24 14:00:00 -- -- -- -- -- -- -- -- --
2019-01-24 13:00:00 -- -- -- -- -- -- -- -- --
2019-01-24 12:00:00 6.9 14 Noroeste -- -- -- 1003.1 -- 91
2019-01-24 11:00:00 -- -- -- -- -- -- -- -- --
2019-01-24 10:00:00 -- -- -- -- -- -- -- -- --
2019-01-24 09:00:00 -- -- -- -- -- -- -- -- --
2019-01-24 08:00:00 11.4 15 Noroeste 32 Noroeste 0.4 1000.7 0.9 98
2019-01-24 07:00:00 11.4 16 Noroeste 35 Noroeste 0.3 1000.3 0.6 98
2019-01-24 06:00:00 11.4 19 Noroeste 41 Noroeste 0.4 1000.2 0.7 99
2019-01-24 05:00:00 11.2 22 Noroeste 41 Noroeste 1 999.8 -0.1 99
2019-01-24 04:00:00 11.5 22 Noroeste 39 Oeste 0.8 999.7 -0.4 99
2019-01-24 03:00:00 11.4 23 Noroeste 48 Oeste 0.1 999.5 -0.3 99
2019-01-24 02:00:00 11.5 23 Noroeste 54 Noroeste 0 999.9 -0.1 97
2019-01-24 01:00:00 11.3 28 Noroeste 46 Oeste 0.4 1000.1 0.3 99
2019-01-24 00:00:00 11.3 29 Oeste 52 Oeste 0.7 999.8 -0.1 98